UZB58 UZNU-UZTT
Flight info
| Callsign | UZB58 |
|---|---|
| Flight time | N/A |
| Altitude | 33000 |
| Route | N0450F330 DIKNA Y720 LAPZE N193 DIBAD |
| Aircraft | A320/M-VGDW/C |
Departure
| Time | N/A |
|---|---|
| Airport | UZNU |
Arrival
| Time | 2026-05-05 18:20 |
|---|---|
| Airport | Tashkent International Airport (UZTT) |
| Time | Latitude | Longitude | Altitude | Speed | Heading |
|---|---|---|---|---|---|
| 2026-05-05 17:01 | 41.58631 | 60.63368 | 328 ft | 0 kts | 320° |
| 2026-05-05 17:19 | 41.58655 | 60.63343 | 328 ft | 13 kts | 330° |
| 2026-05-05 17:19 | 41.58676 | 60.63414 | 328 ft | 11 kts | 124° |
| 2026-05-05 17:19 | 41.58619 | 60.63489 | 327 ft | 11 kts | 121° |
| 2026-05-05 17:19 | 41.58649 | 60.63575 | 328 ft | 10 kts | 49° |
| 2026-05-05 17:20 | 41.58693 | 60.63642 | 325 ft | 9 kts | 49° |
| 2026-05-05 17:20 | 41.58735 | 60.63709 | 324 ft | 9 kts | 49° |
| 2026-05-05 17:20 | 41.58765 | 60.63776 | 327 ft | 8 kts | 96° |
| 2026-05-05 17:20 | 41.58746 | 60.63808 | 323 ft | 0 kts | 142° |
| 2026-05-05 17:21 | 41.58723 | 60.63834 | 327 ft | 24 kts | 139° |
| 2026-05-05 17:22 | 41.57708 | 60.64987 | 334 ft | 153 kts | 139° |
| 2026-05-05 17:22 | 41.56942 | 60.65886 | 945 ft | 148 kts | 137° |
| 2026-05-05 17:22 | 41.56147 | 60.66809 | 1417 ft | 154 kts | 139° |
| 2026-05-05 17:22 | 41.55298 | 60.67768 | 1732 ft | 173 kts | 139° |
| 2026-05-05 17:23 | 41.54306 | 60.68885 | 1890 ft | 200 kts | 139° |
| 2026-05-05 17:23 | 41.53176 | 60.70161 | 2196 ft | 225 kts | 139° |
| 2026-05-05 17:23 | 41.51921 | 60.71582 | 2649 ft | 246 kts | 139° |
| 2026-05-05 17:23 | 41.50790 | 60.73357 | 3388 ft | 256 kts | 121° |
| 2026-05-05 17:24 | 41.50150 | 60.75592 | 4191 ft | 263 kts | 101° |
| 2026-05-05 17:24 | 41.50122 | 60.78053 | 5023 ft | 270 kts | 82° |
| 2026-05-05 17:24 | 41.50489 | 60.80503 | 5813 ft | 275 kts | 79° |
| 2026-05-05 17:24 | 41.50877 | 60.83028 | 6613 ft | 280 kts | 79° |
| 2026-05-05 17:25 | 41.51268 | 60.85599 | 7392 ft | 285 kts | 79° |
| 2026-05-05 17:25 | 41.51530 | 60.87328 | 7907 ft | 289 kts | 79° |
| 2026-05-05 17:25 | 41.52067 | 60.90881 | 8958 ft | 296 kts | 79° |
| 2026-05-05 17:25 | 41.52476 | 60.93597 | 9743 ft | 301 kts | 79° |
| 2026-05-05 17:26 | 41.52894 | 60.96380 | 10305 ft | 314 kts | 79° |
| 2026-05-05 17:26 | 41.53337 | 60.99352 | 10556 ft | 338 kts | 79° |
| 2026-05-05 17:26 | 41.53803 | 61.02488 | 10809 ft | 359 kts | 79° |
| 2026-05-05 17:26 | 41.54294 | 61.05798 | 11398 ft | 367 kts | 78° |
| 2026-05-05 17:27 | 41.54792 | 61.09161 | 12087 ft | 372 kts | 78° |
| 2026-05-05 17:27 | 41.55296 | 61.12574 | 12777 ft | 377 kts | 78° |
| 2026-05-05 17:27 | 41.55806 | 61.16026 | 13450 ft | 382 kts | 78° |
| 2026-05-05 17:27 | 41.56326 | 61.19536 | 14082 ft | 387 kts | 78° |
| 2026-05-05 17:28 | 41.56849 | 61.23088 | 14682 ft | 391 kts | 78° |
| 2026-05-05 17:28 | 41.57366 | 61.26625 | 15305 ft | 395 kts | 78° |
| 2026-05-05 17:28 | 41.57894 | 61.30244 | 15921 ft | 399 kts | 78° |
| 2026-05-05 17:28 | 41.58430 | 61.33903 | 16530 ft | 403 kts | 78° |
| 2026-05-05 17:29 | 41.58968 | 61.37593 | 17136 ft | 407 kts | 78° |
| 2026-05-05 17:29 | 41.59511 | 61.41325 | 17747 ft | 411 kts | 78° |
| 2026-05-05 17:29 | 41.60053 | 61.45081 | 18326 ft | 415 kts | 78° |
| 2026-05-05 17:29 | 41.60603 | 61.48897 | 18855 ft | 419 kts | 78° |
| 2026-05-05 17:30 | 41.61153 | 61.52722 | 19391 ft | 422 kts | 78° |
| 2026-05-05 17:30 | 41.61710 | 61.56597 | 19929 ft | 426 kts | 78° |
| 2026-05-05 17:30 | 41.62271 | 61.60501 | 20468 ft | 429 kts | 78° |
| 2026-05-05 17:30 | 41.62826 | 61.64380 | 20986 ft | 433 kts | 78° |
| 2026-05-05 17:31 | 41.63392 | 61.68346 | 21505 ft | 436 kts | 78° |
| 2026-05-05 17:31 | 41.63960 | 61.72348 | 21987 ft | 440 kts | 78° |
| 2026-05-05 17:31 | 41.64416 | 61.76413 | 22457 ft | 445 kts | 85° |
| 2026-05-05 17:31 | 41.64634 | 61.80551 | 22924 ft | 448 kts | 85° |
| 2026-05-05 17:32 | 41.64849 | 61.84729 | 23392 ft | 452 kts | 85° |
| 2026-05-05 17:32 | 41.65066 | 61.88931 | 23776 ft | 455 kts | 85° |
| 2026-05-05 17:32 | 41.65283 | 61.93171 | 24153 ft | 458 kts | 85° |
| 2026-05-05 17:32 | 41.65497 | 61.97379 | 24507 ft | 462 kts | 85° |
| 2026-05-05 17:33 | 41.65714 | 62.01672 | 24864 ft | 465 kts | 85° |
| 2026-05-05 17:33 | 41.65933 | 62.05996 | 25201 ft | 468 kts | 85° |
| 2026-05-05 17:33 | 41.66151 | 62.10348 | 25537 ft | 471 kts | 85° |
| 2026-05-05 17:33 | 41.66370 | 62.14735 | 25876 ft | 474 kts | 85° |
| 2026-05-05 17:34 | 41.66589 | 62.19139 | 26213 ft | 477 kts | 85° |
| 2026-05-05 17:34 | 41.66807 | 62.23572 | 26541 ft | 479 kts | 85° |
| 2026-05-05 17:34 | 41.67026 | 62.28033 | 26869 ft | 482 kts | 85° |
| 2026-05-05 17:34 | 41.67246 | 62.32523 | 27180 ft | 485 kts | 86° |
| 2026-05-05 17:35 | 41.67461 | 62.36977 | 27482 ft | 488 kts | 86° |
| 2026-05-05 17:35 | 41.67676 | 62.41515 | 27791 ft | 490 kts | 86° |
| 2026-05-05 17:35 | 41.67890 | 62.46077 | 28104 ft | 493 kts | 85° |
| 2026-05-05 17:35 | 41.68102 | 62.50657 | 28402 ft | 495 kts | 86° |
| 2026-05-05 17:36 | 41.68311 | 62.55262 | 28686 ft | 497 kts | 86° |
| 2026-05-05 17:36 | 41.68518 | 62.59882 | 28962 ft | 500 kts | 86° |
| 2026-05-05 17:36 | 41.68726 | 62.64532 | 29225 ft | 502 kts | 86° |
| 2026-05-05 17:36 | 41.68936 | 62.69205 | 29481 ft | 504 kts | 86° |
| 2026-05-05 17:37 | 41.69146 | 62.73899 | 29734 ft | 507 kts | 86° |
| 2026-05-05 17:37 | 41.69288 | 62.77022 | 29900 ft | 508 kts | 86° |
| 2026-05-05 17:37 | 41.69567 | 62.83276 | 30233 ft | 508 kts | 86° |
| 2026-05-05 17:37 | 41.69772 | 62.87989 | 30557 ft | 507 kts | 86° |
| 2026-05-05 17:38 | 41.69968 | 62.92693 | 30855 ft | 506 kts | 86° |
| 2026-05-05 17:38 | 41.70161 | 62.97390 | 31146 ft | 505 kts | 86° |
| 2026-05-05 17:38 | 41.70356 | 63.02082 | 31422 ft | 505 kts | 85° |
| 2026-05-05 17:38 | 41.70550 | 63.06773 | 31698 ft | 505 kts | 85° |
| 2026-05-05 17:39 | 41.70748 | 63.11462 | 31983 ft | 504 kts | 85° |
| 2026-05-05 17:39 | 41.70948 | 63.16145 | 32300 ft | 504 kts | 85° |
| 2026-05-05 17:39 | 41.71140 | 63.20758 | 32597 ft | 503 kts | 85° |
| 2026-05-05 17:39 | 41.71328 | 63.25419 | 32875 ft | 503 kts | 85° |
| 2026-05-05 17:40 | 41.71513 | 63.30087 | 32954 ft | 501 kts | 85° |
| 2026-05-05 17:40 | 41.71870 | 63.39385 | 32964 ft | 500 kts | 85° |
| 2026-05-05 17:41 | 41.72228 | 63.48679 | 32961 ft | 499 kts | 85° |
| 2026-05-05 17:41 | 41.72579 | 63.57886 | 32967 ft | 498 kts | 85° |
| 2026-05-05 17:42 | 41.72926 | 63.67149 | 32969 ft | 499 kts | 85° |
| 2026-05-05 17:42 | 41.73256 | 63.76428 | 32978 ft | 499 kts | 85° |
| 2026-05-05 17:43 | 41.73575 | 63.85697 | 32980 ft | 499 kts | 85° |
| 2026-05-05 17:43 | 41.73888 | 63.94971 | 32983 ft | 498 kts | 85° |
| 2026-05-05 17:44 | 41.74205 | 64.04167 | 32984 ft | 498 kts | 85° |
| 2026-05-05 17:44 | 41.74515 | 64.13426 | 33005 ft | 497 kts | 85° |
| 2026-05-05 17:45 | 41.74813 | 64.22674 | 33002 ft | 497 kts | 85° |
| 2026-05-05 17:45 | 41.75104 | 64.31910 | 33003 ft | 496 kts | 86° |
| 2026-05-05 17:46 | 41.75370 | 64.41091 | 33013 ft | 496 kts | 85° |
| 2026-05-05 17:46 | 41.75639 | 64.50309 | 33015 ft | 495 kts | 85° |
| 2026-05-05 17:47 | 41.75885 | 64.59520 | 33004 ft | 495 kts | 89° |
| 2026-05-05 17:47 | 41.75057 | 64.68686 | 33000 ft | 497 kts | 99° |
| 2026-05-05 17:48 | 41.73863 | 64.77801 | 32982 ft | 497 kts | 99° |
| 2026-05-05 17:48 | 41.72677 | 64.86849 | 32986 ft | 497 kts | 99° |
| 2026-05-05 17:49 | 41.71469 | 64.95962 | 32990 ft | 497 kts | 99° |
| 2026-05-05 17:49 | 41.70250 | 65.05068 | 32999 ft | 497 kts | 99° |
| 2026-05-05 17:50 | 41.69032 | 65.14169 | 32995 ft | 497 kts | 99° |
| 2026-05-05 17:50 | 41.67817 | 65.23210 | 32997 ft | 497 kts | 99° |
| 2026-05-05 17:51 | 41.66585 | 65.32304 | 33000 ft | 497 kts | 99° |
| 2026-05-05 17:51 | 41.65345 | 65.41395 | 33002 ft | 496 kts | 99° |
| 2026-05-05 17:52 | 41.64092 | 65.50462 | 33001 ft | 496 kts | 99° |
| 2026-05-05 17:52 | 41.62832 | 65.59521 | 32998 ft | 496 kts | 99° |
| 2026-05-05 17:53 | 41.61574 | 65.68585 | 33003 ft | 496 kts | 99° |
| 2026-05-05 17:53 | 41.60320 | 65.77584 | 32996 ft | 496 kts | 99° |
| 2026-05-05 17:54 | 41.59040 | 65.86646 | 32993 ft | 496 kts | 99° |
| 2026-05-05 17:54 | 41.57751 | 65.95699 | 32997 ft | 496 kts | 99° |
| 2026-05-05 17:55 | 41.56456 | 66.04751 | 32997 ft | 496 kts | 99° |
| 2026-05-05 17:55 | 41.55174 | 66.13743 | 32995 ft | 496 kts | 99° |
| 2026-05-05 17:56 | 41.53875 | 66.22793 | 32994 ft | 496 kts | 99° |
| 2026-05-05 17:56 | 41.52554 | 66.31841 | 32997 ft | 497 kts | 99° |
| 2026-05-05 17:57 | 41.51229 | 66.40847 | 33010 ft | 488 kts | 98° |
| 2026-05-05 17:57 | 41.49954 | 66.49545 | 33012 ft | 477 kts | 98° |
| 2026-05-05 17:57 | 41.49314 | 66.53886 | 32887 ft | 477 kts | 99° |
| 2026-05-05 17:58 | 41.48671 | 66.58211 | 32635 ft | 473 kts | 98° |
| 2026-05-05 17:58 | 41.48032 | 66.62501 | 32377 ft | 471 kts | 98° |
| 2026-05-05 17:58 | 41.47406 | 66.66773 | 32119 ft | 468 kts | 98° |
| 2026-05-05 17:58 | 41.46793 | 66.71006 | 31653 ft | 463 kts | 98° |
| 2026-05-05 17:59 | 41.46187 | 66.75211 | 31124 ft | 460 kts | 98° |
| 2026-05-05 17:59 | 41.45585 | 66.79387 | 30602 ft | 458 kts | 98° |
| 2026-05-05 17:59 | 41.44983 | 66.83542 | 30083 ft | 455 kts | 98° |
| 2026-05-05 17:59 | 41.44388 | 66.87608 | 29534 ft | 452 kts | 98° |
| 2026-05-05 18:00 | 41.43785 | 66.91692 | 29036 ft | 447 kts | 98° |
| 2026-05-05 18:00 | 41.43186 | 66.95732 | 28552 ft | 442 kts | 98° |
| 2026-05-05 18:00 | 41.42592 | 66.99732 | 28070 ft | 438 kts | 98° |
| 2026-05-05 18:00 | 41.42005 | 67.03694 | 27604 ft | 434 kts | 98° |
| 2026-05-05 18:01 | 41.41425 | 67.07611 | 27134 ft | 430 kts | 98° |
| 2026-05-05 18:01 | 41.40849 | 67.11500 | 26692 ft | 426 kts | 99° |
| 2026-05-05 18:01 | 41.40275 | 67.15354 | 26249 ft | 423 kts | 99° |
| 2026-05-05 18:01 | 41.39702 | 67.19175 | 25803 ft | 419 kts | 99° |
| 2026-05-05 18:02 | 41.39138 | 67.22922 | 25364 ft | 417 kts | 99° |
| 2026-05-05 18:02 | 41.38571 | 67.26696 | 24897 ft | 415 kts | 99° |
| 2026-05-05 18:02 | 41.38009 | 67.30444 | 24426 ft | 413 kts | 99° |
| 2026-05-05 18:02 | 41.37447 | 67.34188 | 23955 ft | 411 kts | 100° |
| 2026-05-05 18:03 | 41.36887 | 67.37910 | 23442 ft | 409 kts | 100° |
| 2026-05-05 18:03 | 41.36327 | 67.41612 | 22924 ft | 407 kts | 100° |
| 2026-05-05 18:03 | 41.35767 | 67.45289 | 22428 ft | 404 kts | 100° |
| 2026-05-05 18:03 | 41.35216 | 67.48885 | 21959 ft | 401 kts | 100° |
| 2026-05-05 18:04 | 41.34662 | 67.52510 | 21477 ft | 398 kts | 100° |
| 2026-05-05 18:04 | 41.34110 | 67.56115 | 20995 ft | 396 kts | 100° |
| 2026-05-05 18:04 | 41.33560 | 67.59692 | 20521 ft | 394 kts | 100° |
| 2026-05-05 18:04 | 41.33010 | 67.63258 | 20044 ft | 392 kts | 101° |
| 2026-05-05 18:05 | 41.32461 | 67.66799 | 19569 ft | 390 kts | 101° |
| 2026-05-05 18:05 | 41.31916 | 67.70327 | 19097 ft | 388 kts | 101° |
| 2026-05-05 18:05 | 41.31374 | 67.73840 | 18627 ft | 387 kts | 101° |
| 2026-05-05 18:05 | 41.30832 | 67.77340 | 18143 ft | 386 kts | 101° |
| 2026-05-05 18:06 | 41.30298 | 67.80776 | 17644 ft | 383 kts | 101° |
| 2026-05-05 18:06 | 41.30116 | 67.81948 | 17504 ft | 382 kts | 101° |
| 2026-05-05 18:06 | 41.29224 | 67.87657 | 16751 ft | 377 kts | 101° |
| 2026-05-05 18:06 | 41.28694 | 67.91054 | 16306 ft | 374 kts | 101° |
| 2026-05-05 18:07 | 41.28321 | 67.94460 | 15869 ft | 371 kts | 91° |
| 2026-05-05 18:07 | 41.28154 | 68.04555 | 14782 ft | 358 kts | 90° |
| 2026-05-05 18:08 | 41.28096 | 68.07840 | 14428 ft | 355 kts | 90° |
| 2026-05-05 18:08 | 41.28039 | 68.11102 | 14043 ft | 352 kts | 90° |
| 2026-05-05 18:08 | 41.27981 | 68.14354 | 13654 ft | 350 kts | 90° |
| 2026-05-05 18:08 | 41.27943 | 68.16486 | 13409 ft | 347 kts | 90° |
| 2026-05-05 18:09 | 41.27884 | 68.19671 | 13069 ft | 342 kts | 91° |
| 2026-05-05 18:09 | 41.27826 | 68.22817 | 12721 ft | 338 kts | 91° |
| 2026-05-05 18:09 | 41.27769 | 68.25924 | 12384 ft | 334 kts | 91° |
| 2026-05-05 18:09 | 41.27692 | 68.29980 | 11941 ft | 329 kts | 91° |
| 2026-05-05 18:10 | 41.27632 | 68.33012 | 11614 ft | 327 kts | 91° |
| 2026-05-05 18:10 | 41.27591 | 68.35052 | 11393 ft | 326 kts | 91° |
| 2026-05-05 18:10 | 41.27532 | 68.38016 | 11073 ft | 324 kts | 92° |
| 2026-05-05 18:10 | 41.27474 | 68.41006 | 10745 ft | 323 kts | 92° |
| 2026-05-05 18:11 | 41.27417 | 68.43979 | 10421 ft | 321 kts | 92° |
| 2026-05-05 18:11 | 41.27357 | 68.46942 | 10104 ft | 319 kts | 92° |
| 2026-05-05 18:11 | 41.27295 | 68.49853 | 9884 ft | 311 kts | 92° |
| 2026-05-05 18:11 | 41.27232 | 68.52708 | 9616 ft | 306 kts | 92° |
| 2026-05-05 18:12 | 41.27167 | 68.55524 | 9281 ft | 304 kts | 92° |
| 2026-05-05 18:12 | 41.27105 | 68.58283 | 8935 ft | 301 kts | 92° |
| 2026-05-05 18:12 | 41.27045 | 68.61054 | 8586 ft | 299 kts | 92° |
| 2026-05-05 18:12 | 41.26984 | 68.63806 | 8238 ft | 296 kts | 93° |
| 2026-05-05 18:13 | 41.26923 | 68.66531 | 7891 ft | 294 kts | 93° |
| 2026-05-05 18:13 | 41.26864 | 68.69238 | 7549 ft | 292 kts | 93° |
| 2026-05-05 18:13 | 41.26804 | 68.71921 | 7208 ft | 289 kts | 93° |
| 2026-05-05 18:13 | 41.26744 | 68.74581 | 6878 ft | 287 kts | 93° |
| 2026-05-05 18:14 | 41.26681 | 68.77224 | 6546 ft | 285 kts | 93° |
| 2026-05-05 18:14 | 41.26619 | 68.79844 | 6192 ft | 283 kts | 93° |
| 2026-05-05 18:14 | 41.26385 | 68.82402 | 6012 ft | 277 kts | 108° |
| 2026-05-05 18:14 | 41.25819 | 68.84823 | 5892 ft | 285 kts | 109° |
| 2026-05-05 18:15 | 41.25178 | 68.87525 | 5643 ft | 322 kts | 109° |
| 2026-05-05 18:15 | 41.24501 | 68.90391 | 5276 ft | 324 kts | 109° |
| 2026-05-05 18:15 | 41.23840 | 68.93206 | 4912 ft | 314 kts | 109° |
| 2026-05-05 18:15 | 41.23199 | 68.95940 | 4534 ft | 306 kts | 108° |
| 2026-05-05 18:16 | 41.22678 | 68.98630 | 4271 ft | 296 kts | 96° |
| 2026-05-05 18:16 | 41.22823 | 69.01301 | 4071 ft | 285 kts | 82° |
| 2026-05-05 18:16 | 41.23128 | 69.03833 | 3992 ft | 269 kts | 82° |
| 2026-05-05 18:16 | 41.23406 | 69.06202 | 4001 ft | 250 kts | 82° |
| 2026-05-05 18:17 | 41.23651 | 69.08387 | 3887 ft | 238 kts | 83° |
| 2026-05-05 18:17 | 41.23888 | 69.10505 | 3636 ft | 226 kts | 83° |
| 2026-05-05 18:17 | 41.24112 | 69.12509 | 3363 ft | 213 kts | 83° |
| 2026-05-05 18:17 | 41.24324 | 69.14411 | 3100 ft | 203 kts | 82° |
| 2026-05-05 18:18 | 41.24524 | 69.16202 | 2865 ft | 189 kts | 82° |
| 2026-05-05 18:18 | 41.24710 | 69.17873 | 2602 ft | 176 kts | 82° |
| 2026-05-05 18:18 | 41.24848 | 69.19419 | 2384 ft | 160 kts | 87° |
| 2026-05-05 18:18 | 41.24868 | 69.20817 | 2206 ft | 147 kts | 88° |
| 2026-05-05 18:19 | 41.24980 | 69.22131 | 1929 ft | 139 kts | 78° |
| 2026-05-05 18:19 | 41.25137 | 69.23369 | 1761 ft | 138 kts | 82° |
| 2026-05-05 18:19 | 41.25262 | 69.24618 | 1589 ft | 136 kts | 80° |
| 2026-05-05 18:19 | 41.25405 | 69.25849 | 1443 ft | 134 kts | 81° |
| 2026-05-05 18:20 | 41.25535 | 69.27015 | 1382 ft | 112 kts | 82° |
| 2026-05-05 18:20 | 41.25625 | 69.27815 | 1380 ft | 63 kts | 81° |
| 2026-05-05 18:20 | 41.25665 | 69.28177 | 1380 ft | 33 kts | 82° |
| 2026-05-05 18:20 | 41.25688 | 69.28339 | 1382 ft | 17 kts | 81° |
| 2026-05-05 18:21 | 41.25691 | 69.28416 | 1376 ft | 2 kts | 174° |
| 2026-05-05 18:21 | 41.25681 | 69.28353 | 1380 ft | 16 kts | 264° |
| 2026-05-05 18:21 | 41.25658 | 69.28134 | 1382 ft | 29 kts | 261° |
| 2026-05-05 18:21 | 41.25628 | 69.27866 | 1381 ft | 30 kts | 262° |
| 2026-05-05 18:22 | 41.25645 | 69.27728 | 1380 ft | 10 kts | 319° |
| 2026-05-05 18:22 | 41.25690 | 69.27680 | 1381 ft | 7 kts | 322° |
| 2026-05-05 18:22 | 41.25741 | 69.27627 | 1383 ft | 15 kts | 321° |
| 2026-05-05 18:22 | 41.25830 | 69.27516 | 1378 ft | 19 kts | 316° |
| 2026-05-05 18:23 | 41.25896 | 69.27433 | 1380 ft | 10 kts | 317° |
| 2026-05-05 18:23 | 41.25919 | 69.27405 | 1381 ft | 0 kts | 318° |
| 2026-05-05 18:23 | 41.25966 | 69.27350 | 1380 ft | 14 kts | 319° |
| 2026-05-05 18:24 | 41.26034 | 69.27273 | 1380 ft | 12 kts | 317° |
| 2026-05-05 18:24 | 41.26026 | 69.27171 | 1380 ft | 14 kts | 244° |
| 2026-05-05 18:24 | 41.25989 | 69.27058 | 1381 ft | 12 kts | 258° |
| 2026-05-05 18:24 | 41.26030 | 69.27006 | 1380 ft | 4 kts | 337° |
| 2026-05-05 18:25 | 41.26042 | 69.26999 | 1382 ft | 0 kts | 336° |
| 2026-05-05 18:25 | 41.26044 | 69.26998 | 1378 ft | 1 kts | 336° |